Terminal Aerodrome Forecast
Issued by NWS

Home | Current Version | Previous Version | Text Only | Print | Product List | Glossary On
Versions: 1 2 3 4 5 6 7 8 9 10 11 12 13 14 15 16 17 18 19 20 21 22 23 24 25 26 27 28 29 30 31 32 33 34 35 36 37 38 39 40 41 42 43 44 45 46 47 48 49 50
720
FTUS43 KMKX 081739
TAFENW
TAF
KENW 081739Z 0818/0918 30011KT 6SM -SHSN OVC015
     FM082300 30010G17KT 2SM -SHSN OVC015
     FM090800 32015G21KT 3SM -SHSN OVC015
     FM091000 32015G22KT 3SM -SHSN OVC025
     FM091300 32014G22KT 6SM -SHSN OVC020=

USA.gov is the U.S. government's official web portal to all federal, state and local government web resources and services.